Nimble — WDH5792 — position and weather

sailwx.info

Track history (hours):
 
Tides and Currents Weather Stations Pressure Air Temp Water Temp Dewpoint Dewpoint Depression Visibility Wind Speed Wind Dir Waves Ship Positions

Nimble

Owner: Mohler, George, Mercer Island, WA. More information available from US FCC via Universal Licensing System and Coast Guard Vessel Documentation Center.

Last reported at 2017-Oct-08 21:13 UTC. Time now 2017-Oct-18 20:20 UTC.
Position N 47°41' W 122°25'.
Warning: this ship's position is 9 days out of date.

Length 14 m.

Type: Sailing vessel. MMSI: 367631540.

Date/timePositionNaut miles runAvg speedWind from/ knotsBaromVisibWave heightAir tempDewpointWater temp
2017-Oct-08 21:13N 47°41' W 122°25'0 0.0
2017-Oct-08 20:58N 47°41' W 122°25'0 0.0
2017-Oct-08 00:13N 47°41' W 122°25'0 0.0
2017-Oct-07 23:58N 47°41' W 122°25'0 0.0
2017-Oct-07 23:28N 47°41' W 122°25'1 2.5
2017-Oct-07 23:00N 47°42' W 122°25'4 7.5
2017-Oct-07 22:30N 47°46' W 122°25'3 5.3
2017-Oct-07 21:57N 47°48' W 122°24'0 0.0
2017-Oct-07 21:30N 47°48' W 122°24'0 0.0
2017-Oct-07 21:00N 47°48' W 122°24'0 0.0
2017-Oct-07 20:29N 47°48' W 122°24'2 4.2
2017-Oct-07 20:00N 47°50' W 122°25'3 6.8
2017-Oct-07 19:30N 47°52' W 122°29'2 3.8
2017-Oct-07 19:00N 47°54' W 122°28'2 4.0
2017-Oct-07 18:30N 47°52' W 122°26'3 5.3
2017-Oct-07 18:00N 47°50' W 122°24'1 2.0
2017-Oct-07 17:30N 47°49' W 122°23'0 0.1
2017-Oct-07 17:00N 47°49' W 122°23'1 1.8
2017-Oct-07 16:29N 47°48' W 122°24'0 0.0
2017-Oct-07 16:00N 47°48' W 122°24'3 5.9
2017-Oct-07 15:30N 47°46' W 122°24'3 6.9
2017-Oct-07 15:00N 47°42' W 122°25'1 2.7
2017-Oct-07 14:30N 47°41' W 122°25'  
Track history (hours):
 
Tides and Currents Weather Stations Pressure Air Temp Water Temp Dewpoint Dewpoint Depression Visibility Wind Speed Wind Dir Waves Ship Positions

Nimble

Owner: Mohler, George, Mercer Island, WA. More information available from US FCC via Universal Licensing System and Coast Guard Vessel Documentation Center.

Last reported at 2017-Oct-08 21:13 UTC. Time now 2017-Oct-18 20:20 UTC.
Position N 47°41' W 122°25'.
Warning: this ship's position is 9 days out of date.

Length 14 m.

Type: Sailing vessel. MMSI: 367631540.

Date/timePositionNaut miles runAvg speedWind from/ knotsBaromVisibWave heightAir tempDewpointWater temp
2017-Oct-08 21:13N 47°41' W 122°25'0 0.0
2017-Oct-08 20:58N 47°41' W 122°25'0 0.0
2017-Oct-08 00:13N 47°41' W 122°25'0 0.0
2017-Oct-07 23:58N 47°41' W 122°25'0 0.0
2017-Oct-07 23:28N 47°41' W 122°25'1 2.5
2017-Oct-07 23:00N 47°42' W 122°25'4 7.5
2017-Oct-07 22:30N 47°46' W 122°25'3 5.3
2017-Oct-07 21:57N 47°48' W 122°24'0 0.0
2017-Oct-07 21:30N 47°48' W 122°24'0 0.0
2017-Oct-07 21:00N 47°48' W 122°24'0 0.0
2017-Oct-07 20:29N 47°48' W 122°24'2 4.2
2017-Oct-07 20:00N 47°50' W 122°25'3 6.8
2017-Oct-07 19:30N 47°52' W 122°29'2 3.8
2017-Oct-07 19:00N 47°54' W 122°28'2 4.0
2017-Oct-07 18:30N 47°52' W 122°26'3 5.3
2017-Oct-07 18:00N 47°50' W 122°24'1 2.0
2017-Oct-07 17:30N 47°49' W 122°23'0 0.1
2017-Oct-07 17:00N 47°49' W 122°23'1 1.8
2017-Oct-07 16:29N 47°48' W 122°24'0 0.0
2017-Oct-07 16:00N 47°48' W 122°24'3 5.9
2017-Oct-07 15:30N 47°46' W 122°24'3 6.9
2017-Oct-07 15:00N 47°42' W 122°25'1 2.7
2017-Oct-07 14:30N 47°41' W 122°25'  

Dump ship's entire track history